createdAt,value
2018-08-16T00:03:35.693Z,91.699997
2018-08-16T00:08:37.947Z,92.300003
2018-08-16T00:13:40.348Z,92.800003
2018-08-16T00:18:42.640Z,93.400002
2018-08-16T00:23:44.892Z,92.599998
2018-08-16T00:28:47.184Z,92.199997
2018-08-16T00:33:49.587Z,92.800003
2018-08-16T00:38:51.767Z,91.5
2018-08-16T00:43:53.979Z,90.400002
2018-08-16T00:48:56.379Z,89.699997
2018-08-16T00:53:58.712Z,90.300003
2018-08-16T00:59:01.092Z,90
2018-08-16T01:04:03.358Z,90.099998
2018-08-16T01:09:05.646Z,90.5
2018-08-16T01:14:07.922Z,90.199997
2018-08-16T01:19:10.105Z,90.800003
2018-08-16T01:24:12.435Z,90.300003
2018-08-16T01:29:14.712Z,90.099998
2018-08-16T01:34:17.019Z,89.5
2018-08-16T01:39:19.316Z,89.599998
2018-08-16T01:44:21.578Z,89.400002
2018-08-16T01:49:24.022Z,89.699997
2018-08-16T01:54:26.179Z,89
2018-08-16T01:59:28.526Z,89.400002
2018-08-16T02:04:30.770Z,89.099998
2018-08-16T02:09:33.016Z,89.300003
2018-08-16T02:14:35.430Z,89.400002
2018-08-16T02:19:37.709Z,89.599998
2018-08-16T02:24:39.919Z,89.900002
2018-08-16T02:29:42.192Z,90.099998
2018-08-16T02:34:44.567Z,90.199997
2018-08-16T02:39:46.818Z,90.400002
2018-08-16T02:44:49.132Z,90.699997
2018-08-16T02:49:51.479Z,91.099998
2018-08-16T02:54:53.775Z,90.800003
2018-08-16T02:59:56.066Z,90.900002
2018-08-16T03:04:58.316Z,90.699997
2018-08-16T03:10:00.648Z,90.300003
2018-08-16T03:15:02.875Z,89.599998
2018-08-16T03:20:05.213Z,89.599998
2018-08-16T03:25:07.440Z,88.900002
2018-08-16T03:40:14.376Z,88.099998
2018-08-16T03:45:16.689Z,88.300003
2018-08-16T03:50:18.913Z,88.099998
2018-08-16T03:55:21.370Z,87.699997
2018-08-16T04:00:23.558Z,87.599998
2018-08-16T04:05:25.902Z,87.699997
2018-08-16T04:10:28.094Z,87.599998
2018-08-16T04:15:30.524Z,87.599998
2018-08-16T04:20:32.767Z,87.599998
2018-08-16T04:25:35.118Z,87.599998
2018-08-16T04:30:37.324Z,88.300003
2018-08-16T04:35:39.667Z,88.300003
2018-08-16T04:40:41.844Z,88.599998
2018-08-16T04:45:44.191Z,88.699997
2018-08-16T04:50:46.486Z,88.900002
2018-08-16T04:55:48.764Z,89.699997
2018-08-16T05:00:51.064Z,89.800003
2018-08-16T05:05:53.447Z,89.800003
2018-08-16T05:10:55.648Z,89.800003
2018-08-16T05:15:57.895Z,89.900002
2018-08-16T05:21:01.689Z,90.199997
2018-08-16T05:26:03.740Z,90.199997
2018-08-16T05:31:04.978Z,90.199997
2018-08-16T05:36:07.329Z,90
2018-08-16T05:41:09.536Z,89.5
2018-08-16T05:46:11.723Z,89.300003
2018-08-16T05:51:14.020Z,89.400002
2018-08-16T05:56:16.238Z,89.5
2018-08-16T06:01:18.590Z,89.300003
2018-08-16T06:11:23.187Z,88.900002
2018-08-16T06:16:25.555Z,88.699997
2018-08-16T06:21:27.865Z,87
2018-08-16T06:26:30.062Z,86.5
2018-08-16T06:31:32.317Z,86.199997
2018-08-16T06:36:34.685Z,85.599998
2018-08-16T06:41:36.869Z,84.900002
2018-08-16T06:46:39.231Z,84.800003
2018-08-16T06:51:41.558Z,84.400002
2018-08-16T06:56:43.869Z,84.400002
2018-08-16T07:01:46.173Z,83.5
2018-08-16T07:06:48.368Z,83.400002
2018-08-16T07:11:50.724Z,83.199997
2018-08-16T07:16:53.065Z,82
2018-08-16T07:21:55.365Z,80.400002
2018-08-16T07:26:57.641Z,80.599998
2018-08-16T07:31:59.920Z,78.699997
2018-08-16T07:37:02.236Z,79.199997
2018-08-16T07:42:04.598Z,78
2018-08-16T07:47:06.750Z,77.099998
2018-08-16T07:52:09.239Z,77.300003
2018-08-16T07:57:11.383Z,77.900002
2018-08-16T08:02:13.729Z,77.099998
2018-08-16T08:07:15.963Z,76.400002
2018-08-16T08:12:18.318Z,77.099998
2018-08-16T08:17:20.511Z,75
2018-08-16T08:22:22.918Z,73.699997
2018-08-16T08:27:25.260Z,73.599998
2018-08-16T08:32:27.469Z,74.400002
2018-08-16T08:37:31.216Z,70.800003
2018-08-16T08:42:32.033Z,70.199997
2018-08-16T08:47:36.159Z,68.400002
2018-08-16T08:52:36.592Z,69.300003
2018-08-16T08:57:38.846Z,69.099998
2018-08-16T09:02:41.275Z,70.599998
2018-08-16T09:07:43.546Z,70.699997
2018-08-16T09:12:45.785Z,68.199997
2018-08-16T09:17:48.035Z,68.099998
2018-08-16T09:22:50.309Z,69.400002
2018-08-16T09:27:52.771Z,68.699997
2018-08-16T09:32:54.975Z,68.099998
2018-08-16T09:37:57.310Z,67.099998
2018-08-16T09:42:59.597Z,66.400002
2018-08-16T09:48:01.930Z,65.300003
2018-08-16T09:53:04.128Z,64
2018-08-16T09:58:06.431Z,63
2018-08-16T10:03:08.697Z,63.099998
2018-08-16T10:08:11.111Z,63.700001
2018-08-16T10:13:13.294Z,61.700001
2018-08-16T10:18:15.662Z,59
2018-08-16T10:23:19.068Z,58.200001
2018-08-16T10:28:20.227Z,58.099998
2018-08-16T10:33:22.662Z,58.099998
2018-08-16T10:38:25.004Z,57
2018-08-16T10:43:28.560Z,55.099998
2018-08-16T10:48:29.276Z,54.5
2018-08-16T10:53:31.668Z,56.400002
2018-08-16T10:58:34.017Z,56.299999
2018-08-16T11:03:36.318Z,56.400002
2018-08-16T11:08:38.516Z,54.799999
2018-08-16T11:13:40.814Z,55.900002
2018-08-16T11:18:43.320Z,55.400002
2018-08-16T11:23:45.518Z,57
2018-08-16T11:28:47.823Z,51.599998
2018-08-16T11:33:49.988Z,49
2018-08-16T11:38:52.357Z,47.599998
2018-08-16T11:43:54.548Z,44.700001
2018-08-16T11:48:56.973Z,43.5
2018-08-16T11:53:59.175Z,44.299999
2018-08-16T11:59:01.418Z,46.599998
2018-08-16T12:04:03.695Z,43.400002
2018-08-16T12:09:06.191Z,45.200001
2018-08-16T12:14:08.420Z,43
2018-08-16T12:19:10.626Z,41
2018-08-16T12:24:12.985Z,41.200001
2018-08-16T12:29:15.275Z,43
2018-08-16T12:34:17.522Z,40.799999
2018-08-16T12:39:19.845Z,42.599998
2018-08-16T12:44:22.165Z,45.700001
2018-08-16T12:49:24.567Z,44.299999
2018-08-16T12:54:26.755Z,39.5
2018-08-16T12:59:28.959Z,38.299999
2018-08-16T13:04:31.381Z,37.200001
2018-08-16T13:09:33.569Z,40.400002
2018-08-16T13:14:35.879Z,37
2018-08-16T13:19:38.226Z,38.200001
2018-08-16T13:24:40.603Z,36.599998
2018-08-16T13:29:42.791Z,37.799999
2018-08-16T13:34:45.236Z,36
2018-08-16T13:39:47.357Z,39.400002
2018-08-16T13:44:49.688Z,37.200001
2018-08-16T13:49:52.020Z,34.599998
2018-08-16T13:54:54.288Z,37.099998
2018-08-16T13:59:56.562Z,34.5
2018-08-16T14:04:59.980Z,37.700001
2018-08-16T14:10:01.084Z,34.299999
2018-08-16T14:15:03.584Z,36.5
2018-08-16T14:20:05.768Z,37
2018-08-16T14:25:08.045Z,40
2018-08-16T14:30:10.396Z,36.099998
2018-08-16T14:35:12.591Z,36.599998
2018-08-16T14:40:14.885Z,37.599998
2018-08-16T14:45:17.138Z,35.5
2018-08-16T14:50:19.568Z,37.599998
2018-08-16T14:55:21.788Z,39.700001
2018-08-16T15:00:24.109Z,41.099998
2018-08-16T15:05:26.353Z,40.599998
2018-08-16T15:10:28.720Z,38.200001
2018-08-16T15:15:30.989Z,39.700001
2018-08-16T15:20:33.314Z,40.700001
2018-08-16T15:25:35.673Z,40.599998
2018-08-16T15:30:37.979Z,39.5
2018-08-16T15:35:40.099Z,39.200001
2018-08-16T15:40:43.070Z,37.700001
2018-08-16T15:45:44.740Z,37.799999
2018-08-16T15:50:47.097Z,38.700001
2018-08-16T15:55:49.446Z,38.099998
2018-08-16T16:00:51.580Z,38.599998
2018-08-16T16:05:53.967Z,39.5
2018-08-16T16:10:56.139Z,40.700001
2018-08-16T16:15:58.544Z,41.700001
2018-08-16T16:21:01.228Z,41.400002
2018-08-16T16:26:03.098Z,41.900002
2018-08-16T16:31:06.468Z,41.299999
2018-08-16T16:41:09.933Z,43.5
2018-08-16T16:46:12.281Z,42.799999
2018-08-16T16:51:14.645Z,48.700001
2018-08-16T16:56:17.051Z,49.099998
2018-08-16T17:01:19.198Z,54.5
2018-08-16T17:06:21.429Z,49
2018-08-16T17:11:23.768Z,52.799999
2018-08-16T17:16:26.203Z,52.400002
2018-08-16T17:21:28.369Z,54.299999
2018-08-16T17:26:30.706Z,57.400002
2018-08-16T17:31:33.133Z,59.799999
2018-08-16T17:36:36.156Z,60.599998
2018-08-16T17:46:39.860Z,65.199997
2018-08-16T17:51:42.194Z,64.199997
2018-08-16T17:56:44.327Z,63.299999
2018-08-16T18:01:48.067Z,63.099998
2018-08-16T18:06:49.064Z,63.799999
2018-08-16T18:11:51.255Z,63.599998
2018-08-16T18:16:53.613Z,64.699997
2018-08-16T18:21:55.954Z,66.099998
2018-08-16T18:26:58.450Z,66.800003
2018-08-16T18:32:00.434Z,68.400002
2018-08-16T18:37:02.815Z,69.599998
2018-08-16T18:42:04.997Z,68.800003
2018-08-16T18:47:07.431Z,69.699997
2018-08-16T18:52:09.662Z,69.800003
2018-08-16T18:57:11.999Z,71.900002
2018-08-16T19:02:14.279Z,71.699997
2018-08-16T19:07:16.472Z,73.199997
2018-08-16T19:12:18.789Z,74.099998
2018-08-16T19:17:21.122Z,75.300003
2018-08-16T19:22:23.576Z,76.400002
2018-08-16T19:27:25.701Z,77.599998
2018-08-16T19:32:28.012Z,78.099998
2018-08-16T19:37:30.315Z,79.699997
2018-08-16T19:42:32.696Z,81.599998
2018-08-16T19:47:34.903Z,84.300003
2018-08-16T19:52:37.227Z,85.199997
2018-08-16T19:57:39.415Z,85.699997
2018-08-16T20:02:43.007Z,86
2018-08-16T20:07:45.177Z,85.5
2018-08-16T20:12:46.450Z,87.400002
2018-08-16T20:17:48.905Z,87.400002
2018-08-16T20:22:50.861Z,86.699997
2018-08-16T20:27:53.271Z,87.699997
2018-08-16T20:32:55.486Z,87.800003
2018-08-16T20:37:57.868Z,87.800003
2018-08-16T20:43:00.144Z,88.300003
2018-08-16T20:48:02.492Z,88.699997
2018-08-16T20:53:04.853Z,89.199997
2018-08-16T20:58:07.011Z,89.199997
2018-08-16T21:03:09.334Z,90.300003
2018-08-16T21:08:11.702Z,90.800003
2018-08-16T21:13:13.843Z,91.400002
2018-08-16T21:18:16.188Z,91.300003
2018-08-16T21:23:18.456Z,87.800003
2018-08-16T21:28:20.701Z,89.699997
2018-08-16T21:33:23.003Z,89.599998
2018-08-16T21:38:25.349Z,89.699997
2018-08-16T21:43:27.630Z,88.300003
2018-08-16T21:48:29.980Z,87.800003
2018-08-16T21:53:37.283Z,86.699997
2018-08-16T22:03:37.048Z,86.099998
2018-08-16T22:08:39.090Z,85.300003
2018-08-16T22:13:41.419Z,85
2018-08-16T22:18:43.743Z,85.099998
2018-08-16T22:23:46.082Z,86.199997
2018-08-16T22:28:48.304Z,87.599998
2018-08-16T22:33:50.550Z,88
2018-08-16T22:38:52.861Z,88.300003
2018-08-16T22:43:55.251Z,88.400002
2018-08-16T22:48:57.510Z,89.5
2018-08-16T22:53:59.828Z,90.300003
2018-08-16T22:59:02.027Z,91.099998
2018-08-16T23:04:04.282Z,93.300003
2018-08-16T23:09:06.714Z,92.199997
2018-08-16T23:14:08.937Z,92.400002
2018-08-16T23:19:11.266Z,96.699997
2018-08-16T23:24:13.617Z,98.900002
2018-08-16T23:29:15.858Z,99.900002
2018-08-16T23:34:18.105Z,99.900002
2018-08-16T23:39:20.580Z,99.900002
2018-08-16T23:44:22.757Z,99.900002
2018-08-16T23:49:24.989Z,99.900002
2018-08-16T23:54:27.270Z,99.900002
2018-08-16T23:59:29.542Z,99.900002
